Time;durP1;ratioP1;P1;durP2;ratioP2;P2;SDS_P1;SDS_P2;PMS_P1;PMS_P2;Temp;Humidity;BMP_temperature;BMP_pressure;BME280_temperature;BME280_humidity;BME280_pressure;Samples;Min_cycle;Max_cycle;Signal;HPM_P1;HPM_P2
2024/02/16 00:01:45;;;;;;;4.37;1.80;;;15.00;99.90;;;;;;7286396;19;20199;-80
2024/02/16 00:04:11;;;;;;;5.80;2.00;;;14.90;99.90;;;;;;7286367;19;20191;-79
2024/02/16 00:06:37;;;;;;;6.60;2.40;;;14.90;99.90;;;;;;7284813;19;20549;-80
2024/02/16 00:09:03;;;;;;;6.23;2.43;;;14.90;99.90;;;;;;7286336;19;20189;-80
2024/02/16 00:11:28;;;;;;;5.73;2.23;;;14.90;99.90;;;;;;7286370;19;20668;-79
2024/02/16 00:13:54;;;;;;;5.40;2.20;;;14.90;99.90;;;;;;7307242;19;20228;-80
2024/02/16 00:16:21;;;;;;;6.13;2.30;;;14.90;99.90;;;;;;7286790;19;20196;-80
2024/02/16 00:18:46;;;;;;;9.47;2.53;;;15.00;99.90;;;;;;7284298;19;20261;-79
2024/02/16 00:21:12;;;;;;;4.37;2.03;;;15.00;99.90;;;;;;7287075;19;20189;-79
2024/02/16 00:23:38;;;;;;;4.70;2.20;;;15.10;99.90;;;;;;7284886;19;20644;-80
2024/02/16 00:26:07;;;;;;;7.97;2.30;;;15.00;99.90;;;;;;7286506;19;20202;-79
2024/02/16 00:28:32;;;;;;;6.03;2.10;;;15.20;99.90;;;;;;7285914;19;20858;-80
2024/02/16 00:30:58;;;;;;;4.17;2.13;;;15.20;99.90;;;;;;7284527;19;20204;-79
2024/02/16 00:33:24;;;;;;;5.80;2.03;;;15.20;99.90;;;;;;7306485;19;20209;-79
2024/02/16 00:35:49;;;;;;;5.23;2.40;;;15.30;99.90;;;;;;7282079;19;20196;-80
2024/02/16 00:38:15;;;;;;;7.47;2.60;;;15.30;99.90;;;;;;7284468;19;20712;-81
2024/02/16 00:40:44;;;;;;;4.97;2.00;;;15.30;99.90;;;;;;7282041;19;20207;-80
2024/02/16 00:43:10;;;;;;;7.00;2.20;;;15.30;99.90;;;;;;7284520;19;20193;-80
2024/02/16 00:45:36;;;;;;;7.87;2.40;;;15.20;99.90;;;;;;7285285;19;20193;-80
2024/02/16 00:48:03;;;;;;;7.00;2.60;;;15.30;99.90;;;;;;7283450;19;20190;-80
2024/02/16 00:50:29;;;;;;;5.70;2.20;;;15.20;99.90;;;;;;7283846;19;20194;-79
2024/02/16 00:52:55;;;;;;;6.50;2.60;;;15.20;99.90;;;;;;7301603;19;20530;-77
2024/02/16 00:55:20;;;;;;;7.37;2.20;;;15.10;99.90;;;;;;7295950;19;20206;-80
2024/02/16 00:57:46;;;;;;;6.90;2.50;;;15.20;99.90;;;;;;7284614;19;20945;-80
2024/02/16 01:00:12;;;;;;;4.37;2.30;;;15.20;99.90;;;;;;7284052;19;20251;-80
2024/02/16 01:02:38;;;;;;;5.43;2.40;;;15.20;99.90;;;;;;7285157;19;20982;-80
2024/02/16 01:05:04;;;;;;;6.13;2.40;;;15.10;99.90;;;;;;7285699;19;20199;-80
2024/02/16 01:07:31;;;;;;;7.87;2.57;;;15.10;99.90;;;;;;7283464;19;20200;-79
2024/02/16 01:09:57;;;;;;;4.77;2.30;;;15.10;99.90;;;;;;7283835;19;20199;-78
2024/02/16 01:12:23;;;;;;;5.07;2.10;;;15.10;99.90;;;;;;7304509;19;20189;-79
2024/02/16 01:14:49;;;;;;;7.40;2.30;;;15.10;99.90;;;;;;7282416;19;20185;-79
2024/02/16 01:17:14;;;;;;;7.70;2.37;;;15.10;99.90;;;;;;7282758;19;20862;-80
2024/02/16 01:19:40;;;;;;;7.37;2.33;;;15.10;99.90;;;;;;7283538;19;20214;-79
2024/02/16 01:22:06;;;;;;;8.50;2.60;;;15.20;99.90;;;;;;7283155;19;20196;-79
2024/02/16 01:24:31;;;;;;;4.40;1.87;;;15.20;99.90;;;;;;7284322;19;20660;-79
2024/02/16 01:26:58;;;;;;;8.20;2.50;;;15.10;99.90;;;;;;7283204;19;20188;-79
2024/02/16 01:29:23;;;;;;;5.93;2.57;;;15.20;99.90;;;;;;7305139;19;20201;-79
2024/02/16 01:31:49;;;;;;;5.70;2.20;;;15.20;99.90;;;;;;7282149;19;20185;-79
2024/02/16 01:34:15;;;;;;;5.70;2.23;;;15.10;99.90;;;;;;7283545;19;20200;-80
2024/02/16 01:36:41;;;;;;;9.43;2.87;;;15.10;99.90;;;;;;7284230;19;20188;-79
2024/02/16 01:39:07;;;;;;;8.50;2.70;;;15.10;99.90;;;;;;7283070;19;20207;-79
2024/02/16 01:41:33;;;;;;;7.87;2.83;;;15.00;99.90;;;;;;7283233;19;20242;-79
2024/02/16 01:43:59;;;;;;;6.77;2.50;;;15.00;99.90;;;;;;7283343;19;20195;-80
2024/02/16 01:46:26;;;;;;;4.53;2.30;;;15.00;99.90;;;;;;7305358;19;20184;-80
2024/02/16 01:48:52;;;;;;;6.07;2.40;;;15.10;99.90;;;;;;7281901;19;20261;-80
2024/02/16 01:51:18;;;;;;;6.40;2.53;;;15.10;99.90;;;;;;7280032;19;20195;-79
2024/02/16 01:53:44;;;;;;;6.77;2.37;;;15.10;99.90;;;;;;7282235;19;20198;-80
2024/02/16 01:56:10;;;;;;;8.97;2.80;;;15.10;99.90;;;;;;7281984;19;20192;-79
2024/02/16 01:58:36;;;;;;;6.17;2.50;;;15.10;99.90;;;;;;7281273;19;20218;-80
2024/02/16 02:01:02;;;;;;;6.30;2.57;;;15.00;99.90;;;;;;7281895;19;20203;-79
2024/02/16 02:03:29;;;;;;;6.10;2.40;;;15.00;99.90;;;;;;7282431;19;20192;-79
2024/02/16 02:05:56;;;;;;;6.80;2.63;;;15.10;99.90;;;;;;7312655;19;20195;-79
2024/02/16 02:08:22;;;;;;;8.50;2.63;;;15.00;99.90;;;;;;7288854;19;20221;-80
2024/02/16 02:10:47;;;;;;;5.40;2.63;;;15.00;99.90;;;;;;7289903;19;20200;-80
2024/02/16 02:13:14;;;;;;;6.47;2.60;;;15.00;99.90;;;;;;7288134;19;20193;-80
2024/02/16 02:15:41;;;;;;;5.50;2.33;;;15.00;99.90;;;;;;7287557;19;20277;-80
2024/02/16 02:18:06;;;;;;;7.23;2.60;;;15.10;99.90;;;;;;7289037;19;20692;-80
2024/02/16 02:20:33;;;;;;;7.63;2.47;;;15.10;99.90;;;;;;7288375;19;20200;-79
2024/02/16 02:22:59;;;;;;;6.83;2.60;;;15.10;99.90;;;;;;7288559;19;20975;-80
2024/02/16 02:25:26;;;;;;;7.70;2.53;;;15.10;99.90;;;;;;7310626;19;20189;-80
2024/02/16 02:27:52;;;;;;;6.60;2.40;;;15.10;99.90;;;;;;7287004;19;20604;-80
2024/02/16 02:30:18;;;;;;;4.80;2.40;;;15.10;99.90;;;;;;7289113;19;20208;-80
2024/02/16 02:32:44;;;;;;;7.40;2.53;;;15.20;99.90;;;;;;7288818;19;20223;-81
2024/02/16 02:35:11;;;;;;;6.60;2.50;;;15.20;99.90;;;;;;7287511;19;20514;-80
2024/02/16 02:37:36;;;;;;;10.20;2.70;;;15.30;99.90;;;;;;7289054;19;20655;-79
2024/02/16 02:40:06;;;;;;;9.37;2.63;;;15.20;99.90;;;;;;7287733;19;20195;-79
2024/02/16 02:42:31;;;;;;;7.83;2.60;;;15.20;99.90;;;;;;7286526;19;20197;-79
2024/02/16 02:44:57;;;;;;;8.97;2.77;;;15.30;99.90;;;;;;7287220;19;20181;-78
2024/02/16 02:47:23;;;;;;;5.90;2.40;;;15.20;99.90;;;;;;7307998;19;20272;-80
2024/02/16 02:49:48;;;;;;;5.70;2.60;;;15.20;99.90;;;;;;7286323;19;20200;-80
2024/02/16 02:52:14;;;;;;;7.33;2.50;;;15.20;99.90;;;;;;7288075;19;20193;-81
2024/02/16 02:54:40;;;;;;;7.83;2.60;;;15.20;99.90;;;;;;7286645;19;20189;-80
2024/02/16 02:57:06;;;;;;;6.90;2.80;;;15.20;99.90;;;;;;7287813;19;20268;-79
2024/02/16 02:59:31;;;;;;;9.90;3.00;;;15.30;99.90;;;;;;7286974;19;20188;-80
2024/02/16 03:01:57;;;;;;;7.47;2.60;;;15.30;99.90;;;;;;7287329;19;20196;-80
2024/02/16 03:04:23;;;;;;;8.10;3.00;;;15.30;99.90;;;;;;7315022;19;20208;-80
2024/02/16 03:06:51;;;;;;;8.47;2.90;;;15.30;99.90;;;;;;7300843;19;20178;-79
2024/02/16 03:09:16;;;;;;;8.00;2.87;;;15.30;99.90;;;;;;7298894;19;20266;-79
2024/02/16 03:11:42;;;;;;;8.33;3.20;;;15.30;99.90;;;;;;7301153;19;20183;-79
2024/02/16 03:14:08;;;;;;;9.87;2.67;;;15.20;99.90;;;;;;7287970;19;20186;-79
2024/02/16 03:16:34;;;;;;;7.77;2.50;;;15.30;99.90;;;;;;7283563;19;20795;-80
2024/02/16 03:18:59;;;;;;;9.00;3.13;;;15.20;99.90;;;;;;7287576;19;20189;-79
2024/02/16 03:21:25;;;;;;;6.17;2.63;;;15.20;99.90;;;;;;7304427;19;20189;-78
2024/02/16 03:23:51;;;;;;;6.47;2.90;;;15.20;99.90;;;;;;7300387;19;20183;-79
2024/02/16 03:26:19;;;;;;;9.47;2.77;;;15.20;99.90;;;;;;7286857;19;20644;-80
2024/02/16 03:28:48;;;;;;;6.50;2.50;;;15.20;99.90;;;;;;7287221;19;20189;-80
2024/02/16 03:31:18;;;;;;;7.00;2.70;;;15.10;99.90;;;;;;7286649;19;20188;-79
2024/02/16 03:33:44;;;;;;;8.97;2.87;;;15.20;99.90;;;;;;7288223;19;20674;-80
2024/02/16 03:36:12;;;;;;;8.63;3.10;;;15.20;99.90;;;;;;7287374;19;20201;-80
2024/02/16 03:38:38;;;;;;;6.43;2.50;;;15.20;99.90;;;;;;7287991;19;20215;-79
2024/02/16 03:41:04;;;;;;;9.57;2.80;;;15.30;99.90;;;;;;7286375;19;20198;-80
2024/02/16 03:43:29;;;;;;;7.07;2.80;;;15.40;99.90;;;;;;7287078;19;20185;-79
2024/02/16 03:45:55;;;;;;;8.43;2.57;;;15.40;99.90;;;;;;7306720;19;21040;-75
2024/02/16 03:48:21;;;;;;;7.83;2.80;;;15.50;99.90;;;;;;7295286;19;20900;-80
2024/02/16 03:50:46;;;;;;;5.07;2.60;;;15.50;99.90;;;;;;7286705;19;20209;-80
2024/02/16 03:53:12;;;;;;;9.60;3.17;;;15.50;99.90;;;;;;7286720;19;20547;-80
2024/02/16 03:55:38;;;;;;;6.83;3.00;;;15.50;99.90;;;;;;7285562;19;20199;-79
2024/02/16 03:58:04;;;;;;;7.37;2.93;;;15.60;99.90;;;;;;7285690;19;20190;-79
2024/02/16 04:00:29;;;;;;;8.33;3.20;;;15.60;99.90;;;;;;7285021;19;20187;-80
2024/02/16 04:02:55;;;;;;;8.90;2.80;;;15.60;99.90;;;;;;7306038;19;20261;-76
2024/02/16 04:05:21;;;;;;;7.70;3.03;;;15.60;99.90;;;;;;7295663;19;20189;-80
2024/02/16 04:07:47;;;;;;;8.20;2.97;;;15.60;99.90;;;;;;7285574;19;20677;-80
2024/02/16 04:10:12;;;;;;;11.60;3.30;;;15.70;99.90;;;;;;7285853;19;20197;-80
2024/02/16 04:12:38;;;;;;;6.77;2.83;;;15.70;99.90;;;;;;7285769;19;20184;-80
2024/02/16 04:15:04;;;;;;;10.97;3.00;;;15.60;99.90;;;;;;7283444;19;20769;-80
2024/02/16 04:17:30;;;;;;;7.03;2.80;;;15.60;99.90;;;;;;7284496;19;20203;-80
2024/02/16 04:19:55;;;;;;;11.20;2.97;;;15.70;99.90;;;;;;7302380;19;20193;-78
2024/02/16 04:22:21;;;;;;;7.83;3.00;;;15.70;99.90;;;;;;7295394;19;20213;-80
2024/02/16 04:24:47;;;;;;;7.17;2.87;;;15.60;99.90;;;;;;7285298;19;20309;-80
2024/02/16 04:27:13;;;;;;;7.73;2.83;;;15.50;99.90;;;;;;7283848;19;20691;-79
2024/02/16 04:29:38;;;;;;;8.43;3.07;;;15.50;99.90;;;;;;7285970;19;20264;-80
2024/02/16 04:32:04;;;;;;;8.87;2.90;;;15.50;99.90;;;;;;7284769;19;20190;-80
2024/02/16 04:34:30;;;;;;;8.47;3.10;;;15.60;99.90;;;;;;7284503;19;20193;-79
2024/02/16 04:36:55;;;;;;;9.73;2.90;;;15.70;99.90;;;;;;7303531;19;20686;-75
2024/02/16 04:39:21;;;;;;;8.60;2.93;;;15.70;99.90;;;;;;7293319;19;20581;-80
2024/02/16 04:41:47;;;;;;;7.63;3.10;;;15.70;99.90;;;;;;7285054;19;20206;-80
2024/02/16 04:44:12;;;;;;;9.27;3.10;;;15.70;99.90;;;;;;7286072;19;20201;-79
2024/02/16 04:46:39;;;;;;;9.90;3.10;;;15.80;99.90;;;;;;7284811;19;20189;-79
2024/02/16 04:49:04;;;;;;;7.87;3.13;;;15.80;99.90;;;;;;7283936;19;20195;-78
2024/02/16 04:51:30;;;;;;;7.27;2.63;;;15.80;99.90;;;;;;7282938;19;20208;-80
2024/02/16 04:53:56;;;;;;;7.70;3.10;;;15.80;99.90;;;;;;7302917;19;20180;-78
2024/02/16 04:56:22;;;;;;;6.97;2.70;;;15.80;99.90;;;;;;7301906;19;20227;-80
2024/02/16 04:58:48;;;;;;;8.93;2.93;;;15.80;99.90;;;;;;7285339;19;20215;-80
2024/02/16 05:01:14;;;;;;;8.17;3.00;;;15.80;99.90;;;;;;7282801;19;20972;-80
2024/02/16 05:03:43;;;;;;;12.50;2.83;;;15.80;99.90;;;;;;7285028;19;20202;-80
2024/02/16 05:06:08;;;;;;;10.97;3.40;;;15.90;99.90;;;;;;7283516;19;20244;-80
2024/02/16 05:08:34;;;;;;;9.17;3.13;;;15.90;99.90;;;;;;7280630;19;20318;-80
2024/02/16 05:11:02;;;;;;;9.47;3.00;;;15.90;99.90;;;;;;7281214;19;20205;-79
2024/02/16 05:13:28;;;;;;;10.97;3.23;;;15.80;99.90;;;;;;7281098;19;20197;-79
2024/02/16 05:15:54;;;;;;;8.53;3.00;;;15.90;99.90;;;;;;7304171;19;20203;-80
2024/02/16 05:18:22;;;;;;;7.73;3.03;;;15.90;99.90;;;;;;7281871;19;20211;-80
2024/02/16 05:20:48;;;;;;;10.97;2.93;;;16.00;99.90;;;;;;7281000;19;20201;-80
2024/02/16 05:23:13;;;;;;;8.07;3.03;;;16.00;99.90;;;;;;7283369;19;20422;-81
2024/02/16 05:25:39;;;;;;;9.80;3.03;;;15.90;99.90;;;;;;7282706;19;20676;-80
2024/02/16 05:28:05;;;;;;;8.40;3.03;;;15.90;99.90;;;;;;7280666;19;20265;-80
2024/02/16 05:30:31;;;;;;;10.70;3.47;;;15.90;99.90;;;;;;7282412;19;20219;-80
2024/02/16 05:32:59;;;;;;;8.03;3.00;;;15.90;99.90;;;;;;7288499;19;20228;-79
2024/02/16 05:35:28;;;;;;;8.13;2.87;;;15.90;99.90;;;;;;7302321;19;20222;-80
2024/02/16 05:37:55;;;;;;;8.70;3.10;;;15.90;99.90;;;;;;7281812;19;20214;-80
2024/02/16 05:40:43;;;;;;;7.00;3.10;;;15.90;99.90;;;;;;7280375;19;20186;-79
2024/02/16 05:43:09;;;;;;;9.50;3.50;;;16.00;99.90;;;;;;7180589;19;2005044;-79
2024/02/16 05:45:35;;;;;;;11.03;3.53;;;15.90;99.90;;;;;;7282946;19;21009;-80
2024/02/16 05:48:01;;;;;;;8.67;3.17;;;15.90;99.90;;;;;;7282518;19;20204;-79
2024/02/16 05:50:26;;;;;;;9.87;3.37;;;15.90;99.90;;;;;;7293083;19;20294;-78
2024/02/16 05:52:52;;;;;;;10.17;3.30;;;15.80;99.90;;;;;;7300457;19;20189;-80
2024/02/16 05:55:18;;;;;;;10.97;3.53;;;15.80;99.90;;;;;;7282104;19;20638;-79
2024/02/16 05:57:44;;;;;;;10.47;3.40;;;15.70;99.90;;;;;;7283072;19;20253;-80
2024/02/16 06:00:10;;;;;;;10.93;3.50;;;15.70;99.90;;;;;;7282200;19;20185;-80
2024/02/16 06:02:36;;;;;;;8.90;3.37;;;15.70;99.90;;;;;;7282196;19;20194;-79
2024/02/16 06:05:04;;;;;;;9.00;3.57;;;15.80;99.90;;;;;;7281037;19;20214;-79
2024/02/16 06:07:30;;;;;;;9.83;3.10;;;15.80;99.90;;;;;;7278635;19;20666;-79
2024/02/16 06:09:57;;;;;;;10.30;3.67;;;15.70;99.90;;;;;;7301641;19;20189;-77
2024/02/16 06:12:23;;;;;;;12.30;3.90;;;15.70;99.90;;;;;;7303153;19;20215;-80
2024/02/16 06:14:49;;;;;;;10.97;3.60;;;15.70;99.90;;;;;;7281763;19;20179;-80
2024/02/16 06:17:16;;;;;;;9.93;3.47;;;15.60;99.90;;;;;;7284044;19;20195;-80
2024/02/16 06:19:42;;;;;;;9.40;3.50;;;15.40;99.90;;;;;;7291484;19;20181;-79
2024/02/16 06:22:08;;;;;;;9.67;3.43;;;15.40;99.90;;;;;;7300318;19;20203;-78
2024/02/16 06:24:34;;;;;;;9.10;3.70;;;15.30;99.90;;;;;;7300081;19;20218;-79
2024/02/16 06:27:00;;;;;;;10.50;3.80;;;15.40;99.90;;;;;;7293194;19;20563;-80
2024/02/16 06:29:26;;;;;;;14.10;4.57;;;15.30;99.90;;;;;;7302878;19;20205;-77
2024/02/16 06:31:52;;;;;;;11.27;4.00;;;15.20;99.90;;;;;;7280561;19;20196;-79
2024/02/16 06:34:18;;;;;;;10.17;3.70;;;15.30;99.90;;;;;;7281483;19;20180;-80
2024/02/16 06:36:44;;;;;;;10.23;4.00;;;15.20;99.90;;;;;;7280615;19;20204;-78
2024/02/16 06:39:11;;;;;;;10.07;3.87;;;15.20;99.90;;;;;;7280649;19;20614;-79
2024/02/16 06:41:37;;;;;;;10.43;4.30;;;15.10;99.90;;;;;;7283767;19;20201;-80
2024/02/16 06:44:06;;;;;;;11.03;4.23;;;15.10;99.90;;;;;;7284091;19;20200;-80
2024/02/16 06:46:31;;;;;;;13.10;3.70;;;15.10;99.90;;;;;;7280016;19;20197;-79
2024/02/16 06:48:58;;;;;;;12.73;3.90;;;15.10;99.90;;;;;;7288975;19;20302;-79
2024/02/16 06:51:25;;;;;;;11.27;4.13;;;15.20;99.90;;;;;;7315962;19;20224;-80
2024/02/16 06:53:51;;;;;;;13.03;4.13;;;15.30;99.90;;;;;;7295949;19;20214;-81
2024/02/16 06:56:18;;;;;;;11.43;4.47;;;15.30;99.90;;;;;;7296187;19;20209;-82
2024/02/16 06:58:45;;;;;;;11.23;4.37;;;15.30;99.90;;;;;;7296265;19;20208;-81
2024/02/16 07:01:12;;;;;;;9.83;3.83;;;15.20;99.90;;;;;;7297187;19;20209;-80
2024/02/16 07:03:37;;;;;;;16.50;4.70;;;15.20;99.90;;;;;;7297995;19;20259;-80
2024/02/16 07:06:04;;;;;;;12.10;4.63;;;15.20;99.90;;;;;;7289125;19;20261;-83
2024/02/16 07:08:30;;;;;;;17.37;4.80;;;15.20;99.90;;;;;;7286114;19;20205;-78
2024/02/16 07:10:56;;;;;;;11.83;4.60;;;15.20;99.90;;;;;;7308232;19;20281;-81
2024/02/16 07:13:22;;;;;;;13.70;6.07;;;15.20;99.90;;;;;;7287299;19;20686;-80
2024/02/16 07:15:48;;;;;;;15.87;5.93;;;15.20;99.90;;;;;;7287420;19;20193;-80
2024/02/16 07:18:15;;;;;;;17.13;5.43;;;15.20;99.90;;;;;;7288046;19;20189;-80
2024/02/16 07:20:41;;;;;;;17.97;5.60;;;15.10;99.90;;;;;;7287431;19;20678;-80
2024/02/16 07:23:07;;;;;;;13.57;5.27;;;15.10;99.90;;;;;;7287048;19;20189;-80
2024/02/16 07:25:32;;;;;;;20.73;5.60;;;15.20;99.90;;;;;;7287159;19;20189;-81
2024/02/16 07:27:58;;;;;;;18.17;5.40;;;15.30;99.90;;;;;;7287166;19;20214;-80
2024/02/16 07:30:24;;;;;;;14.27;5.40;;;15.20;99.90;;;;;;7307373;19;20267;-80
2024/02/16 07:32:52;;;;;;;18.73;6.00;;;15.30;99.90;;;;;;7286574;19;20184;-81
2024/02/16 07:35:24;;;;;;;14.37;5.90;;;15.20;99.90;;;;;;7285902;19;20199;-81
2024/02/16 07:37:53;;;;;;;17.43;6.63;;;15.30;99.90;;;;;;7283973;19;20252;-80
2024/02/16 07:40:20;;;;;;;17.73;6.13;;;15.20;99.90;;;;;;7284777;19;20187;-79
2024/02/16 07:42:46;;;;;;;14.27;6.10;;;15.20;99.90;;;;;;7285871;19;20196;-78
2024/02/16 07:45:12;;;;;;;15.37;5.50;;;15.20;99.90;;;;;;7285068;19;20640;-79
2024/02/16 07:47:40;;;;;;;11.83;4.87;;;15.20;99.90;;;;;;7285884;19;20199;-79
2024/02/16 07:50:06;;;;;;;12.13;5.03;;;15.20;99.90;;;;;;7283217;19;20562;-78
2024/02/16 07:52:32;;;;;;;10.87;4.43;;;15.30;99.90;;;;;;7284320;19;20189;-78
2024/02/16 07:54:58;;;;;;;11.47;4.87;;;15.20;99.90;;;;;;7288375;19;20189;-78
2024/02/16 07:57:24;;;;;;;12.10;4.80;;;15.30;99.90;;;;;;7308268;19;20726;-79
2024/02/16 07:59:50;;;;;;;11.07;4.80;;;15.30;99.90;;;;;;7285061;19;20260;-79
2024/02/16 08:02:17;;;;;;;13.17;4.37;;;15.30;99.90;;;;;;7281088;19;20371;-79
2024/02/16 08:04:47;;;;;;;11.90;5.30;;;15.40;99.90;;;;;;7286144;19;20181;-79
2024/02/16 08:07:13;;;;;;;12.20;4.50;;;15.30;99.90;;;;;;7283509;19;20659;-78
2024/02/16 08:09:39;;;;;;;13.33;4.43;;;15.30;99.90;;;;;;7284290;19;20193;-78
2024/02/16 08:12:06;;;;;;;11.60;3.83;;;15.30;99.90;;;;;;7284059;19;20189;-79
2024/02/16 08:14:35;;;;;;;12.33;4.53;;;15.30;99.90;;;;;;7283839;19;20241;-79
2024/02/16 08:17:01;;;;;;;14.53;4.97;;;15.30;99.90;;;;;;7283667;19;20189;-79
2024/02/16 08:19:34;;;;;;;13.70;5.63;;;15.30;99.90;;;;;;7301956;19;20529;-77
2024/02/16 08:22:01;;;;;;;17.17;5.70;;;15.10;99.90;;;;;;7283618;19;20191;-78
2024/02/16 08:24:27;;;;;;;16.43;6.53;;;15.00;99.90;;;;;;7302737;19;20229;-76
2024/02/16 08:26:53;;;;;;;18.07;6.53;;;14.80;99.90;;;;;;7297095;19;20312;-78
2024/02/16 08:29:20;;;;;;;17.97;6.40;;;14.90;99.90;;;;;;7285275;19;20193;-78
2024/02/16 08:31:49;;;;;;;22.00;7.60;;;14.80;99.90;;;;;;7284277;19;20232;-77
2024/02/16 08:34:15;;;;;;;24.33;8.40;;;14.80;99.90;;;;;;7282235;19;20544;-78
2024/02/16 08:36:44;;;;;;;21.67;8.60;;;14.80;99.90;;;;;;7283658;19;20199;-78
2024/02/16 08:39:11;;;;;;;25.40;8.87;;;14.90;99.90;;;;;;7282290;19;20206;-78
2024/02/16 08:41:37;;;;;;;21.90;8.60;;;15.00;99.90;;;;;;7282750;19;20212;-78
2024/02/16 08:44:04;;;;;;;19.30;7.73;;;15.10;99.90;;;;;;7283809;19;20193;-79
2024/02/16 08:46:30;;;;;;;22.20;7.80;;;15.10;99.90;;;;;;7284105;19;20190;-78
2024/02/16 08:48:56;;;;;;;17.13;6.17;;;15.10;99.90;;;;;;7307270;19;20211;-79
2024/02/16 08:51:22;;;;;;;18.37;6.70;;;15.20;99.90;;;;;;7285708;19;20249;-78
2024/02/16 08:53:47;;;;;;;14.63;5.70;;;15.30;99.90;;;;;;7283656;19;20216;-78
2024/02/16 08:56:13;;;;;;;16.43;6.33;;;15.40;99.90;;;;;;7284563;19;20196;-78
2024/02/16 08:58:39;;;;;;;16.93;5.53;;;15.50;99.90;;;;;;7284519;19;20185;-77
2024/02/16 09:01:05;;;;;;;16.27;5.97;;;15.60;99.90;;;;;;7282794;19;20198;-79
2024/02/16 09:03:38;;;;;;;13.37;5.37;;;15.60;99.90;;;;;;7282261;19;20289;-79
2024/02/16 09:06:04;;;;;;;13.33;5.63;;;15.60;99.90;;;;;;7283609;19;20663;-79
2024/02/16 09:08:33;;;;;;;14.77;5.73;;;15.50;99.90;;;;;;7280951;19;20192;-78
2024/02/16 09:11:07;;;;;;;17.07;6.20;;;15.50;99.90;;;;;;7283431;19;20537;-78
2024/02/16 09:13:36;;;;;;;17.83;6.03;;;15.60;99.90;;;;;;7284043;19;20184;-79
2024/02/16 09:16:05;;;;;;;19.17;6.50;;;15.50;99.90;;;;;;7283376;19;20188;-79
2024/02/16 09:18:31;;;;;;;16.73;6.87;;;15.50;99.90;;;;;;7284417;19;20641;-79
2024/02/16 09:20:57;;;;;;;17.87;6.47;;;15.50;99.90;;;;;;7296633;19;20200;-79
2024/02/16 09:23:23;;;;;;;18.73;7.20;;;15.60;99.90;;;;;;7300299;19;20219;-79
2024/02/16 09:25:50;;;;;;;16.83;7.20;;;15.70;99.90;;;;;;7283345;19;20248;-79
2024/02/16 09:28:18;;;;;;;20.93;7.80;;;15.60;99.90;;;;;;7283985;19;20555;-79
2024/02/16 09:30:43;;;;;;;22.33;7.50;;;15.50;99.90;;;;;;7283821;19;20197;-79
2024/02/16 09:33:09;;;;;;;21.33;8.13;;;15.50;99.90;;;;;;7286204;19;20192;-79
2024/02/16 09:35:35;;;;;;;23.47;8.73;;;15.60;99.90;;;;;;7286034;19;20284;-79
2024/02/16 09:38:00;;;;;;;25.83;8.53;;;15.70;99.90;;;;;;7290288;19;20229;-79
2024/02/16 09:40:26;;;;;;;20.10;8.03;;;15.70;99.90;;;;;;7306162;19;20980;-80
2024/02/16 09:42:52;;;;;;;22.43;8.00;;;15.70;99.90;;;;;;7284009;19;20286;-80
2024/02/16 09:45:18;;;;;;;21.47;7.83;;;15.80;99.90;;;;;;7283898;19;20187;-79
2024/02/16 09:47:46;;;;;;;21.63;8.20;;;15.90;99.90;;;;;;7283424;19;20192;-79
2024/02/16 09:50:12;;;;;;;20.90;7.63;;;15.80;99.90;;;;;;7281801;19;20208;-79
2024/02/16 09:52:40;;;;;;;19.27;7.80;;;15.90;99.90;;;;;;7283544;19;20212;-80
2024/02/16 09:55:11;;;;;;;19.03;7.23;;;15.90;99.90;;;;;;7281769;19;20185;-79
2024/02/16 09:57:37;;;;;;;17.83;6.40;;;16.00;99.90;;;;;;7282615;19;20785;-79
2024/02/16 10:00:04;;;;;;;18.93;7.07;;;15.90;99.90;;;;;;7282847;19;20189;-79
2024/02/16 10:02:45;;;;;;;18.90;6.83;;;15.90;99.90;;;;;;7283405;19;20193;-79
2024/02/16 10:05:15;;;;;;;16.93;6.27;;;15.90;99.90;;;;;;7282316;19;20594;-79
2024/02/16 10:07:41;;;;;;;18.43;6.33;;;15.90;99.90;;;;;;7281730;19;20605;-80
2024/02/16 10:10:21;;;;;;;14.93;6.03;;;15.90;99.90;;;;;;7282056;19;20193;-79
2024/02/16 10:12:46;;;;;;;14.80;5.60;;;15.90;99.90;;;;;;7281789;19;21174;-79
2024/02/16 10:15:18;;;;;;;21.93;7.10;;;15.90;99.90;;;;;;7280747;19;20203;-79
2024/02/16 10:17:44;;;;;;;17.70;6.20;;;15.80;99.90;;;;;;7281475;19;20261;-79
2024/02/16 10:20:11;;;;;;;15.77;6.13;;;15.90;99.90;;;;;;7280460;19;20612;-79
2024/02/16 10:22:36;;;;;;;15.93;5.97;;;16.00;99.90;;;;;;7280595;19;20190;-79
2024/02/16 10:25:13;;;;;;;20.17;6.40;;;16.10;99.90;;;;;;7282236;19;20196;-80
2024/02/16 10:27:40;;;;;;;12.37;6.33;;;16.10;99.90;;;;;;7287091;19;20192;-79
2024/02/16 10:30:12;;;;;;;16.17;7.10;;;16.10;99.90;;;;;;7286206;19;20203;-80
2024/02/16 10:32:39;;;;;;;15.60;6.77;;;16.00;99.90;;;;;;7288580;19;20184;-79
2024/02/16 10:35:08;;;;;;;15.53;6.40;;;16.00;99.90;;;;;;7288141;19;20202;-79
2024/02/16 10:37:34;;;;;;;16.73;6.77;;;16.00;99.90;;;;;;7287175;19;20186;-79
2024/02/16 10:40:00;;;;;;;18.70;7.13;;;16.10;99.90;;;;;;7287475;19;20239;-79
2024/02/16 10:42:27;;;;;;;21.33;6.87;;;16.10;99.90;;;;;;7308874;19;21044;-79
2024/02/16 10:44:53;;;;;;;20.33;8.00;;;16.00;99.90;;;;;;7289195;19;20213;-80
2024/02/16 10:47:19;;;;;;;21.27;7.47;;;16.10;99.90;;;;;;7288232;19;21026;-79
2024/02/16 10:49:45;;;;;;;19.00;7.57;;;16.10;99.90;;;;;;7287786;19;20192;-79
2024/02/16 10:52:14;;;;;;;20.03;7.87;;;15.80;99.90;;;;;;7285261;19;20194;-79
2024/02/16 10:54:42;;;;;;;18.83;7.23;;;15.80;99.90;;;;;;7284447;19;20204;-80
2024/02/16 10:57:09;;;;;;;18.07;8.07;;;15.70;99.90;;;;;;7287733;19;20197;-78
2024/02/16 10:59:54;;;;;;;18.97;8.13;;;15.80;99.90;;;;;;7288460;19;20719;-79
2024/02/16 11:02:20;;;;;;;21.30;8.40;;;15.80;99.90;;;;;;7286784;19;20299;-79
2024/02/16 11:04:49;;;;;;;18.80;7.77;;;15.90;99.90;;;;;;7286116;19;20196;-79
2024/02/16 11:07:19;;;;;;;22.70;8.53;;;15.90;99.90;;;;;;7286116;19;20198;-80
2024/02/16 11:09:46;;;;;;;29.13;10.73;;;15.90;99.90;;;;;;7286170;19;20202;-78
2024/02/16 11:12:13;;;;;;;55.20;21.93;;;15.90;99.90;;;;;;7285642;19;20189;-79
2024/02/16 11:14:45;;;;;;;21.40;8.90;;;15.90;99.90;;;;;;7285150;19;22009;-79
2024/02/16 11:17:24;;;;;;;27.37;10.43;;;16.00;99.90;;;;;;7285880;19;20220;-78
2024/02/16 11:19:50;;;;;;;26.40;9.40;;;15.90;99.90;;;;;;7286902;19;20374;-79
2024/02/16 11:22:18;;;;;;;24.27;9.07;;;15.70;99.90;;;;;;7286782;19;20572;-79
2024/02/16 11:24:46;;;;;;;21.57;9.00;;;15.60;99.90;;;;;;7286741;19;20190;-79
2024/02/16 11:27:15;;;;;;;23.23;10.07;;;15.50;99.90;;;;;;7285100;19;20523;-79
2024/02/16 11:29:41;;;;;;;22.07;10.27;;;15.40;99.90;;;;;;7285706;19;20268;-79
2024/02/16 11:32:07;;;;;;;24.70;10.50;;;15.40;99.90;;;;;;7285632;19;20216;-79
2024/02/16 11:34:34;;;;;;;21.47;9.70;;;15.50;99.90;;;;;;7286518;19;20286;-78
2024/02/16 11:37:01;;;;;;;27.57;10.23;;;15.40;99.90;;;;;;7282218;19;20190;-78
2024/02/16 11:39:31;;;;;;;22.30;10.70;;;15.40;99.90;;;;;;7303029;19;20216;-78
2024/02/16 11:42:01;;;;;;;27.00;11.53;;;15.30;99.90;;;;;;7305925;19;20201;-77
2024/02/16 11:44:34;;;;;;;19.80;10.40;;;15.30;99.90;;;;;;7304038;19;20679;-78
2024/02/16 11:47:02;;;;;;;24.13;11.27;;;15.30;99.90;;;;;;7283301;19;20334;-78
2024/02/16 11:49:29;;;;;;;24.77;10.90;;;15.30;99.90;;;;;;7291478;19;20762;-79
2024/02/16 11:52:04;;;;;;;27.60;11.07;;;15.30;99.90;;;;;;7307671;19;20683;-79
2024/02/16 11:54:31;;;;;;;21.57;10.77;;;15.30;99.90;;;;;;7262353;19;20197;-79
2024/02/16 11:56:58;;;;;;;23.47;11.83;;;15.20;99.90;;;;;;7307617;19;20213;-79
2024/02/16 11:59:24;;;;;;;22.27;11.27;;;15.30;99.90;;;;;;7285393;19;20598;-79
2024/02/16 12:01:54;;;;;;;22.07;11.10;;;15.30;99.90;;;;;;7285321;19;20228;-79
2024/02/16 12:04:30;;;;;;;24.43;11.33;;;15.40;99.90;;;;;;7284369;19;20197;-80
2024/02/16 12:07:00;;;;;;;21.10;9.83;;;15.40;99.90;;;;;;7282199;19;20195;-79
2024/02/16 12:09:26;;;;;;;23.07;10.43;;;15.30;99.90;;;;;;7280270;19;20189;-79
2024/02/16 12:11:53;;;;;;;18.93;8.57;;;15.20;99.90;;;;;;7281039;19;20681;-79
2024/02/16 12:14:21;;;;;;;18.30;9.77;;;15.10;99.90;;;;;;7282853;19;20196;-79
2024/02/16 12:16:49;;;;;;;16.33;8.43;;;15.10;99.90;;;;;;7285940;19;20724;-79
2024/02/16 12:19:20;;;;;;;14.80;7.63;;;15.00;99.90;;;;;;7284308;19;20571;-79
2024/02/16 12:21:49;;;;;;;13.60;7.90;;;15.00;99.90;;;;;;7283302;19;20554;-80
2024/02/16 12:24:15;;;;;;;13.30;7.53;;;15.00;99.90;;;;;;7283428;19;20188;-80
2024/02/16 12:26:41;;;;;;;14.10;8.20;;;15.10;99.90;;;;;;7283703;19;20208;-79
2024/02/16 12:29:08;;;;;;;11.53;7.43;;;15.00;99.90;;;;;;7284388;19;20184;-79
2024/02/16 12:31:37;;;;;;;13.70;7.43;;;14.90;99.90;;;;;;7286034;19;20197;-79
2024/02/16 12:34:05;;;;;;;11.13;7.13;;;15.00;99.90;;;;;;7283431;19;20192;-79
2024/02/16 12:36:31;;;;;;;12.10;7.07;;;15.00;99.90;;;;;;7283176;19;20202;-79
2024/02/16 12:38:56;;;;;;;12.50;7.20;;;14.90;99.90;;;;;;7305085;19;20191;-79